createdAt,value
2023-06-25T00:00:03.727Z,451.00
2023-06-25T00:01:03.850Z,452.00
2023-06-25T00:02:03.884Z,451.00
2023-06-25T00:03:04.112Z,452.00
2023-06-25T00:04:04.121Z,453.00
2023-06-25T00:05:04.103Z,454.00
2023-06-25T00:06:04.167Z,456.00
2023-06-25T00:07:04.248Z,457.00
2023-06-25T00:08:04.303Z,458.00
2023-06-25T00:09:04.357Z,459.00
2023-06-25T00:10:04.416Z,458.00
2023-06-25T00:11:04.476Z,458.00
2023-06-25T00:12:04.536Z,458.00
2023-06-25T00:13:04.620Z,459.00
2023-06-25T00:14:04.700Z,458.00
2023-06-25T00:15:04.731Z,458.00
2023-06-25T00:16:04.770Z,459.00
2023-06-25T00:17:04.824Z,460.00
2023-06-25T00:18:04.965Z,461.00
2023-06-25T00:19:04.887Z,460.00
2023-06-25T00:20:04.894Z,459.00
2023-06-25T00:21:04.920Z,457.00
2023-06-25T00:22:04.935Z,456.00
2023-06-25T00:23:07.863Z,455.00
2023-06-25T00:24:04.947Z,455.00
2023-06-25T00:25:04.968Z,452.00
2023-06-25T00:26:04.979Z,449.00
2023-06-25T00:27:05.002Z,451.00
2023-06-25T00:28:05.031Z,452.00
2023-06-25T00:29:05.042Z,455.00
2023-06-25T00:30:05.059Z,455.00
2023-06-25T00:31:05.117Z,455.00
2023-06-25T00:32:05.105Z,459.00
2023-06-25T00:33:05.162Z,457.00
2023-06-25T00:34:05.131Z,458.00
2023-06-25T00:35:05.140Z,459.00
2023-06-25T00:36:05.168Z,460.00
2023-06-25T00:37:05.201Z,458.00
2023-06-25T00:38:05.216Z,457.00
2023-06-25T00:39:05.241Z,456.00
2023-06-25T00:40:05.260Z,458.00
2023-06-25T00:41:05.284Z,456.00
2023-06-25T00:42:05.335Z,456.00
2023-06-25T00:43:05.358Z,454.00
2023-06-25T00:44:05.425Z,456.00
2023-06-25T00:45:05.399Z,457.00
2023-06-25T00:46:05.424Z,459.00
2023-06-25T00:47:05.446Z,457.00
2023-06-25T00:48:05.492Z,458.00
2023-06-25T00:49:05.468Z,461.00
2023-06-25T00:50:05.491Z,459.00
2023-06-25T00:51:05.512Z,457.00
2023-06-25T00:52:05.508Z,458.00
2023-06-25T00:53:05.538Z,458.00
2023-06-25T00:54:05.541Z,458.00
2023-06-25T00:55:05.590Z,457.00
2023-06-25T00:56:05.582Z,458.00
2023-06-25T00:57:05.587Z,456.00
2023-06-25T00:58:05.615Z,456.00
2023-06-25T00:59:05.625Z,456.00
2023-06-25T01:00:05.635Z,456.00
2023-06-25T01:01:05.675Z,459.00
2023-06-25T01:02:05.670Z,461.00
2023-06-25T01:03:05.800Z,460.00
2023-06-25T01:04:05.714Z,460.00
2023-06-25T01:05:05.726Z,462.00
2023-06-25T01:06:13.060Z,462.00
2023-06-25T01:07:06.797Z,464.00
2023-06-25T01:08:05.771Z,465.00
2023-06-25T01:09:05.791Z,464.00
2023-06-25T01:10:05.807Z,461.00
2023-06-25T01:11:05.844Z,461.00
2023-06-25T01:12:05.849Z,462.00
2023-06-25T01:13:05.883Z,462.00
2023-06-25T01:14:05.892Z,463.00
2023-06-25T01:15:05.891Z,462.00
2023-06-25T01:16:05.935Z,460.00
2023-06-25T01:17:05.939Z,461.00
2023-06-25T01:18:05.980Z,460.00
2023-06-25T01:19:06.102Z,457.00
2023-06-25T01:20:06.000Z,455.00
2023-06-25T01:21:06.052Z,455.00
2023-06-25T01:22:06.000Z,454.00
2023-06-25T01:23:06.016Z,453.00
2023-06-25T01:24:06.038Z,454.00
2023-06-25T01:25:06.049Z,455.00
2023-06-25T01:26:06.083Z,455.00
2023-06-25T01:27:06.092Z,454.00
2023-06-25T01:28:06.102Z,455.00
2023-06-25T01:29:06.153Z,456.00
2023-06-25T01:30:06.156Z,456.00
2023-06-25T01:31:06.162Z,457.00
2023-06-25T01:32:06.241Z,458.00
2023-06-25T01:33:06.281Z,454.00
2023-06-25T01:34:06.230Z,455.00
2023-06-25T01:35:06.248Z,456.00
2023-06-25T01:36:06.258Z,457.00
2023-06-25T01:37:06.271Z,461.00
2023-06-25T01:38:06.303Z,459.00
2023-06-25T01:39:06.313Z,459.00
2023-06-25T01:40:06.330Z,458.00
2023-06-25T01:41:06.344Z,458.00
2023-06-25T01:42:06.353Z,456.00
2023-06-25T01:43:06.390Z,455.00
2023-06-25T01:44:06.390Z,455.00
2023-06-25T01:45:06.414Z,454.00
2023-06-25T01:46:06.484Z,454.00
2023-06-25T01:47:06.440Z,456.00
2023-06-25T01:48:06.480Z,456.00
2023-06-25T01:49:08.631Z,457.00
2023-06-25T01:50:07.545Z,457.00
2023-06-25T01:51:06.514Z,458.00
2023-06-25T01:52:06.538Z,457.00
2023-06-25T01:53:06.564Z,455.00
2023-06-25T01:54:06.584Z,451.00
2023-06-25T01:55:06.586Z,453.00
2023-06-25T01:56:06.629Z,451.00
2023-06-25T01:57:06.643Z,448.00
2023-06-25T01:58:06.650Z,451.00
2023-06-25T01:59:06.656Z,451.00
2023-06-25T02:00:06.686Z,451.00
2023-06-25T02:01:06.705Z,456.00
2023-06-25T02:02:06.723Z,456.00
2023-06-25T02:03:06.802Z,455.00
2023-06-25T02:04:06.762Z,453.00
2023-06-25T02:05:06.786Z,452.00
2023-06-25T02:06:06.801Z,453.00
2023-06-25T02:07:06.865Z,453.00
2023-06-25T02:08:06.834Z,451.00
2023-06-25T02:09:06.836Z,450.00
2023-06-25T02:10:06.874Z,451.00
2023-06-25T02:11:06.874Z,455.00
2023-06-25T02:12:06.903Z,455.00
2023-06-25T02:13:06.945Z,454.00
2023-06-25T02:14:06.961Z,453.00
2023-06-25T02:15:06.954Z,453.00
2023-06-25T02:16:07.011Z,451.00
2023-06-25T02:17:06.984Z,453.00
2023-06-25T02:18:07.038Z,453.00
2023-06-25T02:19:07.024Z,453.00
2023-06-25T02:20:07.042Z,453.00
2023-06-25T02:21:07.047Z,454.00
2023-06-25T02:22:07.065Z,457.00
2023-06-25T02:23:07.111Z,457.00
2023-06-25T02:24:07.101Z,460.00
2023-06-25T02:25:07.173Z,457.00
2023-06-25T02:26:07.144Z,458.00
2023-06-25T02:27:07.139Z,457.00
2023-06-25T02:28:07.177Z,455.00
2023-06-25T02:29:07.176Z,452.00
2023-06-25T02:30:07.210Z,454.00
2023-06-25T02:31:07.252Z,453.00
2023-06-25T02:32:07.250Z,453.00
2023-06-25T02:33:07.292Z,455.00
2023-06-25T02:34:07.253Z,457.00
2023-06-25T02:35:07.294Z,454.00
2023-06-25T02:36:07.291Z,457.00
2023-06-25T02:37:07.297Z,459.00
2023-06-25T02:38:07.328Z,457.00
2023-06-25T02:39:07.369Z,456.00
2023-06-25T02:40:07.413Z,456.00
2023-06-25T02:41:07.465Z,457.00
2023-06-25T02:42:07.498Z,459.00
2023-06-25T02:43:07.556Z,460.00
2023-06-25T02:44:07.571Z,456.00
2023-06-25T02:45:07.613Z,459.00
2023-06-25T02:46:07.670Z,458.00
2023-06-25T02:47:07.809Z,457.00
2023-06-25T02:48:07.754Z,459.00
2023-06-25T02:49:07.839Z,460.00
2023-06-25T02:50:07.858Z,461.00
2023-06-25T02:51:07.862Z,459.00
2023-06-25T02:52:07.873Z,458.00
2023-06-25T02:53:07.897Z,460.00
2023-06-25T02:54:07.918Z,460.00
2023-06-25T02:55:07.946Z,459.00
2023-06-25T02:56:07.953Z,461.00
2023-06-25T02:57:07.971Z,460.00
2023-06-25T02:58:07.978Z,463.00
2023-06-25T02:59:08.015Z,464.00
2023-06-25T03:00:08.045Z,463.00
2023-06-25T03:01:08.102Z,462.00
2023-06-25T03:02:08.128Z,460.00
2023-06-25T03:03:08.195Z,461.00
2023-06-25T03:04:08.120Z,463.00
2023-06-25T03:05:08.129Z,465.00
2023-06-25T03:06:08.190Z,468.00
2023-06-25T03:07:08.293Z,469.00
2023-06-25T03:08:08.342Z,470.00
2023-06-25T03:09:08.399Z,471.00
2023-06-25T03:10:08.477Z,471.00
2023-06-25T03:11:08.544Z,472.00
2023-06-25T03:12:08.603Z,471.00
2023-06-25T03:13:08.690Z,470.00
2023-06-25T03:14:10.323Z,469.00
2023-06-25T03:15:08.783Z,468.00
2023-06-25T03:16:08.839Z,464.00
2023-06-25T03:17:08.823Z,463.00
2023-06-25T03:18:08.865Z,465.00
2023-06-25T03:19:08.886Z,465.00
2023-06-25T03:20:08.909Z,468.00
2023-06-25T03:21:08.939Z,468.00
2023-06-25T03:22:08.970Z,466.00
2023-06-25T03:23:08.995Z,467.00
2023-06-25T03:24:09.009Z,465.00
2023-06-25T03:25:09.049Z,464.00
2023-06-25T03:26:09.073Z,465.00
2023-06-25T03:27:09.108Z,468.00
2023-06-25T03:28:09.136Z,470.00
2023-06-25T03:29:09.139Z,469.00
2023-06-25T03:30:09.193Z,469.00
2023-06-25T03:31:09.243Z,470.00
2023-06-25T03:32:09.245Z,474.00
2023-06-25T03:33:09.262Z,475.00
2023-06-25T03:34:09.294Z,474.00
2023-06-25T03:35:09.318Z,473.00
2023-06-25T03:36:09.337Z,474.00
2023-06-25T03:37:09.390Z,474.00
2023-06-25T03:38:09.388Z,474.00
2023-06-25T03:39:09.437Z,472.00
2023-06-25T03:40:09.443Z,474.00
2023-06-25T03:41:09.455Z,475.00
2023-06-25T03:42:09.528Z,474.00
2023-06-25T03:43:09.538Z,472.00
2023-06-25T03:44:09.541Z,472.00
2023-06-25T03:45:09.589Z,471.00
2023-06-25T03:46:09.603Z,471.00
2023-06-25T03:47:09.660Z,472.00
2023-06-25T03:48:09.799Z,470.00
2023-06-25T03:49:09.683Z,473.00
2023-06-25T03:50:09.716Z,473.00
2023-06-25T03:51:09.752Z,472.00
2023-06-25T03:52:09.767Z,472.00
2023-06-25T03:53:09.809Z,472.00
2023-06-25T03:54:09.825Z,472.00
2023-06-25T03:55:09.888Z,472.00
2023-06-25T03:56:09.916Z,470.00
2023-06-25T03:57:09.936Z,472.00
2023-06-25T03:58:10.028Z,473.00
2023-06-25T03:59:10.115Z,474.00
2023-06-25T04:00:10.214Z,476.00
2023-06-25T04:01:10.341Z,476.00
2023-06-25T04:02:10.555Z,476.00
2023-06-25T04:03:10.673Z,476.00
2023-06-25T04:04:10.697Z,474.00
2023-06-25T04:05:10.701Z,471.00
2023-06-25T04:06:10.746Z,468.00
2023-06-25T04:07:10.840Z,469.00
2023-06-25T04:08:10.904Z,468.00
2023-06-25T04:09:10.982Z,469.00
2023-06-25T04:10:11.085Z,469.00
2023-06-25T04:11:11.147Z,468.00
2023-06-25T04:12:11.226Z,467.00
2023-06-25T04:13:11.335Z,467.00
2023-06-25T04:14:11.360Z,468.00
2023-06-25T04:15:11.424Z,467.00
2023-06-25T04:16:11.504Z,470.00
2023-06-25T04:17:11.609Z,470.00
2023-06-25T04:18:11.683Z,467.00
2023-06-25T04:19:11.703Z,467.00
2023-06-25T04:20:11.782Z,466.00
2023-06-25T04:21:11.897Z,464.00
2023-06-25T04:22:11.917Z,465.00
2023-06-25T04:23:11.998Z,463.00
2023-06-25T04:24:12.092Z,464.00
2023-06-25T04:25:12.164Z,464.00
2023-06-25T04:26:12.198Z,468.00
2023-06-25T04:27:12.263Z,467.00
2023-06-25T04:28:12.363Z,467.00
2023-06-25T04:29:12.396Z,468.00
2023-06-25T04:30:12.450Z,470.00
2023-06-25T04:31:12.494Z,466.00
2023-06-25T04:32:12.637Z,465.00
2023-06-25T04:33:12.590Z,464.00
2023-06-25T04:34:12.642Z,465.00
2023-06-25T04:35:12.672Z,467.00
2023-06-25T04:36:12.734Z,467.00
2023-06-25T04:37:12.801Z,467.00
2023-06-25T04:38:12.846Z,465.00
2023-06-25T04:39:12.899Z,465.00
2023-06-25T04:40:12.961Z,465.00
2023-06-25T04:41:12.999Z,465.00
2023-06-25T04:42:13.027Z,466.00
2023-06-25T04:43:13.083Z,465.00
2023-06-25T04:44:13.119Z,466.00
2023-06-25T04:45:13.212Z,466.00
2023-06-25T04:46:13.281Z,465.00
2023-06-25T04:47:13.265Z,462.00
2023-06-25T04:48:13.306Z,463.00
2023-06-25T04:49:13.409Z,460.00
2023-06-25T04:50:13.406Z,463.00
2023-06-25T04:51:13.438Z,462.00
2023-06-25T04:52:13.486Z,462.00
2023-06-25T04:53:13.524Z,463.00
2023-06-25T04:54:13.554Z,466.00
2023-06-25T04:55:13.621Z,466.00
2023-06-25T04:56:13.640Z,465.00
2023-06-25T04:57:13.681Z,466.00
2023-06-25T04:58:13.726Z,464.00
2023-06-25T04:59:13.754Z,466.00
2023-06-25T05:00:13.796Z,464.00
2023-06-25T05:01:13.873Z,462.00
2023-06-25T05:02:13.888Z,461.00
2023-06-25T05:03:14.026Z,462.00
2023-06-25T05:04:13.966Z,462.00
2023-06-25T05:05:14.003Z,462.00
2023-06-25T05:06:14.015Z,462.00
2023-06-25T05:07:14.094Z,459.00
2023-06-25T05:08:14.109Z,460.00
2023-06-25T05:09:14.155Z,460.00
2023-06-25T05:10:14.185Z,459.00
2023-06-25T05:11:14.184Z,459.00
2023-06-25T05:12:14.259Z,459.00
2023-06-25T05:13:14.297Z,460.00
2023-06-25T05:14:14.318Z,461.00
2023-06-25T05:15:14.358Z,462.00
2023-06-25T05:16:14.409Z,463.00
2023-06-25T05:17:14.441Z,461.00
2023-06-25T05:18:14.468Z,462.00
2023-06-25T05:19:14.511Z,461.00
2023-06-25T05:20:14.507Z,461.00
2023-06-25T05:21:14.549Z,462.00
2023-06-25T05:22:14.593Z,460.00
2023-06-25T05:23:14.644Z,459.00
2023-06-25T05:24:14.713Z,459.00
2023-06-25T05:25:14.749Z,459.00
2023-06-25T05:26:14.791Z,458.00
2023-06-25T05:27:14.791Z,458.00
2023-06-25T05:28:14.894Z,457.00
2023-06-25T05:29:14.863Z,457.00
2023-06-25T05:30:14.899Z,458.00
2023-06-25T05:31:14.976Z,459.00
2023-06-25T05:32:14.970Z,459.00
2023-06-25T05:33:15.004Z,460.00
2023-06-25T05:34:15.022Z,459.00
2023-06-25T05:35:15.069Z,459.00
2023-06-25T05:36:15.118Z,456.00
2023-06-25T05:37:15.188Z,455.00
2023-06-25T05:38:15.229Z,453.00
2023-06-25T05:39:15.268Z,452.00
2023-06-25T05:40:15.315Z,452.00
2023-06-25T05:41:15.369Z,454.00
2023-06-25T05:42:15.418Z,453.00
2023-06-25T05:43:15.480Z,453.00
2023-06-25T05:44:15.522Z,452.00
2023-06-25T05:45:15.581Z,451.00
2023-06-25T05:46:15.609Z,453.00
2023-06-25T05:47:15.759Z,452.00
2023-06-25T05:48:15.740Z,452.00
2023-06-25T05:49:15.785Z,453.00
2023-06-25T05:50:15.843Z,454.00
2023-06-25T05:51:15.875Z,457.00
2023-06-25T05:52:15.930Z,458.00
2023-06-25T05:53:16.002Z,458.00
2023-06-25T05:54:16.060Z,458.00
2023-06-25T05:55:16.084Z,456.00
2023-06-25T05:56:17.348Z,457.00
2023-06-25T05:57:16.177Z,455.00
2023-06-25T05:58:16.252Z,451.00
2023-06-25T05:59:16.296Z,453.00
2023-06-25T06:00:16.343Z,454.00
2023-06-25T06:01:16.433Z,450.00
2023-06-25T06:02:16.426Z,448.00
2023-06-25T06:03:16.500Z,449.00
2023-06-25T06:04:18.663Z,449.00
2023-06-25T06:05:16.536Z,449.00
2023-06-25T06:06:16.580Z,448.00
2023-06-25T06:07:16.634Z,446.00
2023-06-25T06:08:16.844Z,445.00
2023-06-25T06:09:16.673Z,444.00
2023-06-25T06:10:16.751Z,442.00
2023-06-25T06:11:16.746Z,441.00
2023-06-25T06:12:16.775Z,442.00
2023-06-25T06:13:16.809Z,444.00
2023-06-25T06:14:16.832Z,446.00
2023-06-25T06:15:16.879Z,446.00
2023-06-25T06:16:16.926Z,445.00
2023-06-25T06:17:16.928Z,446.00
2023-06-25T06:18:16.966Z,445.00
2023-06-25T06:19:16.994Z,445.00
2023-06-25T06:20:17.035Z,444.00
2023-06-25T06:21:17.070Z,444.00
2023-06-25T06:22:17.156Z,443.00
2023-06-25T06:23:17.143Z,441.00
2023-06-25T06:24:17.172Z,438.00
2023-06-25T06:25:17.179Z,437.00
2023-06-25T06:26:17.213Z,436.00
2023-06-25T06:27:17.248Z,434.00
2023-06-25T06:28:17.283Z,435.00
2023-06-25T06:29:17.313Z,437.00
2023-06-25T06:30:17.359Z,435.00
2023-06-25T06:31:17.490Z,435.00
2023-06-25T06:32:17.360Z,434.00
2023-06-25T06:33:17.434Z,433.00
2023-06-25T06:34:17.407Z,435.00
2023-06-25T06:35:17.450Z,434.00
2023-06-25T06:36:17.468Z,434.00
2023-06-25T06:37:17.504Z,434.00
2023-06-25T06:38:17.551Z,433.00
2023-06-25T06:39:17.551Z,432.00
2023-06-25T06:40:17.585Z,431.00
2023-06-25T06:41:17.614Z,431.00
2023-06-25T06:42:17.653Z,433.00
2023-06-25T06:43:17.686Z,432.00
2023-06-25T06:44:17.687Z,429.00
2023-06-25T06:45:17.737Z,430.00
2023-06-25T06:46:17.747Z,428.00
2023-06-25T06:47:17.759Z,428.00
2023-06-25T06:48:17.822Z,428.00
2023-06-25T06:49:17.844Z,429.00
2023-06-25T06:50:17.904Z,428.00
2023-06-25T06:51:17.947Z,426.00
2023-06-25T06:52:17.994Z,424.00
2023-06-25T06:53:17.979Z,423.00
2023-06-25T06:54:17.995Z,421.00
2023-06-25T06:55:18.015Z,421.00
2023-06-25T06:56:18.029Z,421.00
2023-06-25T06:57:18.060Z,419.00
2023-06-25T06:58:18.094Z,418.00
2023-06-25T06:59:18.091Z,418.00
2023-06-25T07:00:18.105Z,418.00
2023-06-25T07:01:18.203Z,417.00
2023-06-25T07:02:18.158Z,418.00
2023-06-25T07:03:18.163Z,419.00
2023-06-25T07:04:18.180Z,420.00
2023-06-25T07:05:18.238Z,419.00
2023-06-25T07:06:18.237Z,419.00
2023-06-25T07:07:18.302Z,418.00
2023-06-25T07:08:18.277Z,420.00
2023-06-25T07:09:18.274Z,420.00
2023-06-25T07:10:18.311Z,420.00
2023-06-25T07:11:18.326Z,418.00
2023-06-25T07:12:18.369Z,418.00
2023-06-25T07:13:18.365Z,418.00
2023-06-25T07:14:18.384Z,416.00
2023-06-25T07:15:18.401Z,418.00
2023-06-25T07:16:18.434Z,419.00
2023-06-25T07:17:18.424Z,420.00
2023-06-25T07:18:18.461Z,420.00
2023-06-25T07:19:18.466Z,421.00
2023-06-25T07:20:18.508Z,420.00
2023-06-25T07:21:18.507Z,420.00
2023-06-25T07:22:18.495Z,420.00
2023-06-25T07:23:18.517Z,418.00
2023-06-25T07:24:18.615Z,417.00
2023-06-25T07:25:18.555Z,418.00
2023-06-25T07:26:18.556Z,419.00
2023-06-25T07:27:18.680Z,418.00
2023-06-25T07:28:18.732Z,418.00
2023-06-25T07:29:18.803Z,419.00
2023-06-25T07:30:18.874Z,419.00
2023-06-25T07:31:18.985Z,418.00
2023-06-25T07:32:19.028Z,417.00
2023-06-25T07:33:19.035Z,417.00
2023-06-25T07:34:19.038Z,416.00
2023-06-25T07:35:19.107Z,415.00
2023-06-25T07:36:19.065Z,414.00
2023-06-25T07:37:19.085Z,414.00
2023-06-25T07:38:19.098Z,415.00
2023-06-25T07:39:19.112Z,418.00
2023-06-25T07:40:19.117Z,415.00
2023-06-25T07:41:19.116Z,415.00
2023-06-25T07:42:19.186Z,411.00
2023-06-25T07:43:19.433Z,410.00
2023-06-25T07:44:38.155Z,411.00
2023-06-25T07:45:20.323Z,410.00
2023-06-25T07:46:19.348Z,411.00
2023-06-25T07:47:19.338Z,412.00
2023-06-25T07:48:19.358Z,416.00
2023-06-25T07:49:19.375Z,417.00
2023-06-25T07:50:19.367Z,417.00
2023-06-25T07:51:19.379Z,415.00
2023-06-25T07:52:19.408Z,414.00
2023-06-25T07:53:19.412Z,412.00
2023-06-25T07:54:19.398Z,413.00
2023-06-25T07:55:19.410Z,412.00
2023-06-25T07:56:19.423Z,409.00
2023-06-25T07:57:19.422Z,408.00
2023-06-25T07:58:19.458Z,408.00
2023-06-25T07:59:19.510Z,407.00
2023-06-25T08:00:20.688Z,405.00
2023-06-25T08:01:19.626Z,403.00
2023-06-25T08:02:19.788Z,405.00
2023-06-25T08:03:19.958Z,406.00
2023-06-25T08:04:19.940Z,408.00
2023-06-25T08:05:19.734Z,407.00
2023-06-25T08:06:19.844Z,409.00
2023-06-25T08:07:19.853Z,410.00
2023-06-25T08:08:19.801Z,412.00
2023-06-25T08:09:19.779Z,413.00
2023-06-25T08:10:19.788Z,416.00
2023-06-25T08:11:19.765Z,416.00
2023-06-25T08:12:19.777Z,417.00
2023-06-25T08:13:19.890Z,418.00
2023-06-25T08:14:20.384Z,418.00
2023-06-25T08:15:19.826Z,418.00
2023-06-25T08:16:19.860Z,415.00
2023-06-25T08:17:19.908Z,415.00
2023-06-25T08:18:19.958Z,416.00
2023-06-25T08:19:20.012Z,417.00
2023-06-25T08:20:20.051Z,417.00
2023-06-25T08:21:20.075Z,417.00
2023-06-25T08:22:20.106Z,416.00
2023-06-25T08:23:20.168Z,416.00
2023-06-25T08:24:20.188Z,413.00
2023-06-25T08:25:20.214Z,413.00
2023-06-25T08:26:20.264Z,416.00
2023-06-25T08:27:20.283Z,415.00
2023-06-25T08:28:20.327Z,416.00
2023-06-25T08:29:20.367Z,415.00
2023-06-25T08:30:20.393Z,411.00
2023-06-25T08:31:20.463Z,410.00
2023-06-25T08:32:20.508Z,410.00
2023-06-25T08:33:20.500Z,412.00
2023-06-25T08:34:20.501Z,410.00
2023-06-25T08:35:20.512Z,413.00
2023-06-25T08:36:20.518Z,412.00
2023-06-25T08:37:20.484Z,413.00
2023-06-25T08:38:20.507Z,412.00
2023-06-25T08:39:20.514Z,410.00
2023-06-25T08:40:20.514Z,408.00
2023-06-25T08:41:20.520Z,408.00
2023-06-25T08:42:20.543Z,408.00
2023-06-25T08:43:20.542Z,408.00
2023-06-25T08:44:20.534Z,406.00
2023-06-25T08:45:20.538Z,408.00
2023-06-25T08:46:20.629Z,408.00
2023-06-25T08:47:20.552Z,410.00
2023-06-25T08:48:20.538Z,409.00
2023-06-25T08:49:20.527Z,409.00
2023-06-25T08:50:20.522Z,409.00
2023-06-25T08:51:20.519Z,410.00
2023-06-25T08:52:20.508Z,410.00
2023-06-25T08:53:20.535Z,409.00
2023-06-25T08:54:20.507Z,410.00
2023-06-25T08:55:20.503Z,410.00
2023-06-25T08:56:20.504Z,411.00
2023-06-25T08:57:20.499Z,411.00
2023-06-25T08:58:20.509Z,413.00
2023-06-25T08:59:20.510Z,411.00
2023-06-25T09:00:20.477Z,410.00
2023-06-25T09:01:20.541Z,413.00
2023-06-25T09:02:20.510Z,413.00
2023-06-25T09:03:20.505Z,415.00
2023-06-25T09:04:22.940Z,416.00
2023-06-25T09:05:20.439Z,416.00
2023-06-25T09:06:20.445Z,417.00
2023-06-25T09:07:20.505Z,417.00
2023-06-25T09:08:20.432Z,417.00
2023-06-25T09:09:20.402Z,417.00
2023-06-25T09:10:20.497Z,416.00
2023-06-25T09:11:20.400Z,412.00
2023-06-25T09:12:20.389Z,409.00
2023-06-25T09:13:20.398Z,407.00
2023-06-25T09:14:20.370Z,408.00
2023-06-25T09:15:20.360Z,406.00
2023-06-25T09:16:20.357Z,407.00
2023-06-25T09:17:20.366Z,408.00
2023-06-25T09:18:20.359Z,406.00
2023-06-25T09:19:20.392Z,406.00
2023-06-25T09:20:20.360Z,407.00
2023-06-25T09:21:20.323Z,406.00
2023-06-25T09:22:20.295Z,406.00
2023-06-25T09:23:20.312Z,408.00
2023-06-25T09:24:20.301Z,407.00
2023-06-25T09:25:20.333Z,407.00
2023-06-25T09:26:20.297Z,406.00
2023-06-25T09:27:20.271Z,408.00
2023-06-25T09:28:20.271Z,407.00
2023-06-25T09:29:20.273Z,408.00
2023-06-25T09:30:20.922Z,407.00
2023-06-25T09:31:20.497Z,409.00
2023-06-25T09:32:20.341Z,409.00
2023-06-25T09:33:20.409Z,410.00
2023-06-25T09:34:20.396Z,410.00
2023-06-25T09:35:20.386Z,406.00
2023-06-25T09:36:37.073Z,408.00
2023-06-25T09:37:21.380Z,408.00
2023-06-25T09:38:21.028Z,409.00
2023-06-25T09:39:20.368Z,410.00
2023-06-25T09:40:20.365Z,412.00
2023-06-25T09:41:20.359Z,409.00
2023-06-25T09:42:20.327Z,406.00
2023-06-25T09:43:20.348Z,403.00
2023-06-25T09:44:20.342Z,404.00
2023-06-25T09:45:20.337Z,406.00
2023-06-25T09:46:20.474Z,406.00
2023-06-25T09:47:20.396Z,407.00
2023-06-25T09:48:20.414Z,408.00
2023-06-25T09:49:20.494Z,408.00
2023-06-25T09:50:20.535Z,411.00
2023-06-25T09:51:20.605Z,411.00
2023-06-25T09:52:20.675Z,412.00
2023-06-25T09:53:20.747Z,411.00
2023-06-25T09:54:20.801Z,411.00
2023-06-25T09:55:20.877Z,411.00
2023-06-25T09:56:20.936Z,411.00
2023-06-25T09:57:21.016Z,409.00
2023-06-25T09:58:21.086Z,411.00
2023-06-25T09:59:22.521Z,411.00
2023-06-25T10:00:21.113Z,414.00
2023-06-25T10:01:21.171Z,417.00
2023-06-25T10:02:21.322Z,414.00
2023-06-25T10:03:21.397Z,413.00
2023-06-25T10:04:21.215Z,411.00
2023-06-25T10:05:21.125Z,412.00
2023-06-25T10:06:21.121Z,415.00
2023-06-25T10:07:21.129Z,412.00
2023-06-25T10:08:21.116Z,414.00
2023-06-25T10:09:21.134Z,412.00
2023-06-25T10:10:21.169Z,410.00
2023-06-25T10:11:22.728Z,409.00
2023-06-25T10:12:21.237Z,407.00
2023-06-25T10:13:21.287Z,406.00
2023-06-25T10:14:21.338Z,408.00
2023-06-25T10:15:21.445Z,410.00
2023-06-25T10:16:34.231Z,410.00
2023-06-25T10:17:24.551Z,409.00
2023-06-25T10:18:26.523Z,406.00
2023-06-25T10:19:21.433Z,404.00
2023-06-25T10:20:21.429Z,401.00
2023-06-25T10:21:21.411Z,403.00
2023-06-25T10:22:21.423Z,403.00
2023-06-25T10:23:22.240Z,402.00
2023-06-25T10:24:21.423Z,402.00
2023-06-25T10:25:21.459Z,402.00
2023-06-25T10:26:21.537Z,403.00
2023-06-25T10:27:21.505Z,404.00
2023-06-25T10:28:21.503Z,405.00
2023-06-25T10:29:21.500Z,405.00
2023-06-25T10:30:21.506Z,406.00
2023-06-25T10:31:21.641Z,402.00
2023-06-25T10:32:21.637Z,402.00
2023-06-25T10:33:21.543Z,402.00
2023-06-25T10:34:21.480Z,399.00
2023-06-25T10:35:21.460Z,401.00
2023-06-25T10:36:21.443Z,399.00
2023-06-25T10:37:21.453Z,402.00
2023-06-25T10:38:21.451Z,399.00
2023-06-25T10:39:21.443Z,400.00
2023-06-25T10:40:21.449Z,402.00
2023-06-25T10:41:21.435Z,402.00
2023-06-25T10:42:21.430Z,400.00
2023-06-25T10:43:21.504Z,398.00
2023-06-25T10:44:21.538Z,397.00
2023-06-25T10:45:21.704Z,395.00
2023-06-25T10:46:21.691Z,395.00
2023-06-25T10:47:21.777Z,395.00
2023-06-25T10:48:21.874Z,398.00
2023-06-25T10:49:21.877Z,399.00
2023-06-25T10:50:21.920Z,397.00
2023-06-25T10:51:21.992Z,397.00
2023-06-25T10:52:22.054Z,398.00
2023-06-25T10:53:22.216Z,398.00
2023-06-25T10:54:22.116Z,397.00
2023-06-25T10:55:22.105Z,395.00
2023-06-25T10:56:22.103Z,396.00
2023-06-25T10:57:22.068Z,397.00
2023-06-25T10:58:22.075Z,395.00
2023-06-25T10:59:22.069Z,396.00
2023-06-25T11:00:22.077Z,396.00
2023-06-25T11:01:22.192Z,393.00
2023-06-25T11:02:23.742Z,395.00
2023-06-25T11:03:22.336Z,398.00
2023-06-25T11:04:22.283Z,398.00
2023-06-25T11:05:22.355Z,401.00
2023-06-25T11:06:22.417Z,403.00
2023-06-25T11:07:22.530Z,401.00
2023-06-25T11:08:22.482Z,400.00
2023-06-25T11:09:22.455Z,398.00
2023-06-25T11:10:22.463Z,397.00
2023-06-25T11:11:22.531Z,395.00
2023-06-25T11:12:22.587Z,396.00
2023-06-25T11:13:22.637Z,397.00
2023-06-25T11:14:22.711Z,397.00
2023-06-25T11:15:22.784Z,395.00
2023-06-25T11:16:22.855Z,394.00
2023-06-25T11:17:22.908Z,393.00
2023-06-25T11:18:22.949Z,392.00
2023-06-25T11:19:23.021Z,394.00
2023-06-25T11:20:23.086Z,394.00
2023-06-25T11:21:23.181Z,391.00
2023-06-25T11:22:23.340Z,393.00
2023-06-25T11:23:23.252Z,394.00
2023-06-25T11:24:23.235Z,396.00
2023-06-25T11:25:23.236Z,397.00
2023-06-25T11:26:23.244Z,399.00
2023-06-25T11:27:23.200Z,402.00
2023-06-25T11:28:23.243Z,401.00
2023-06-25T11:29:23.208Z,401.00
2023-06-25T11:30:23.207Z,401.00
2023-06-25T11:31:23.304Z,402.00
2023-06-25T11:32:23.268Z,402.00
2023-06-25T11:33:23.313Z,401.00
2023-06-25T11:34:23.373Z,399.00
2023-06-25T11:35:23.426Z,398.00
2023-06-25T11:36:23.470Z,398.00
2023-06-25T11:37:23.523Z,400.00
2023-06-25T11:38:23.599Z,400.00
2023-06-25T11:39:23.628Z,400.00
2023-06-25T11:40:23.674Z,398.00
2023-06-25T11:41:23.700Z,398.00
2023-06-25T11:42:23.782Z,397.00
2023-06-25T11:43:23.817Z,397.00
2023-06-25T11:44:23.865Z,396.00
2023-06-25T11:45:23.907Z,397.00
2023-06-25T11:46:23.981Z,395.00
2023-06-25T11:47:24.043Z,395.00
2023-06-25T11:48:24.042Z,395.00
2023-06-25T11:49:24.631Z,396.00
2023-06-25T11:50:24.146Z,394.00
2023-06-25T11:51:24.150Z,392.00
2023-06-25T11:52:24.195Z,394.00
2023-06-25T11:53:24.265Z,394.00
2023-06-25T11:54:24.304Z,395.00
2023-06-25T11:55:24.396Z,397.00
2023-06-25T11:56:24.437Z,396.00
2023-06-25T11:57:24.486Z,395.00
2023-06-25T11:58:24.545Z,395.00
2023-06-25T11:59:24.578Z,395.00
2023-06-25T12:00:24.653Z,396.00
2023-06-25T12:01:24.708Z,395.00
2023-06-25T12:02:28.605Z,398.00
2023-06-25T12:03:26.070Z,399.00
2023-06-25T12:04:24.797Z,397.00
2023-06-25T12:05:24.763Z,399.00
2023-06-25T12:06:24.761Z,397.00
2023-06-25T12:07:24.866Z,395.00
2023-06-25T12:08:24.766Z,397.00
2023-06-25T12:09:24.769Z,398.00
2023-06-25T12:10:24.756Z,398.00
2023-06-25T12:11:24.736Z,400.00
2023-06-25T12:12:24.740Z,399.00
2023-06-25T12:13:24.738Z,398.00
2023-06-25T12:14:24.738Z,397.00
2023-06-25T12:15:24.745Z,398.00
2023-06-25T12:16:24.768Z,398.00
2023-06-25T12:17:25.543Z,395.00
2023-06-25T12:18:24.720Z,395.00
2023-06-25T12:19:24.769Z,396.00
2023-06-25T12:20:24.734Z,396.00
2023-06-25T12:21:24.747Z,395.00
2023-06-25T12:22:24.743Z,396.00
2023-06-25T12:23:24.788Z,397.00
2023-06-25T12:24:24.762Z,397.00
2023-06-25T12:25:24.813Z,398.00
2023-06-25T12:26:24.860Z,398.00
2023-06-25T12:27:25.023Z,400.00
2023-06-25T12:28:24.959Z,402.00